Time;durP1;ratioP1;P1;durP2;ratioP2;P2;SDS_P1;SDS_P2;PMS_P1;PMS_P2;Temp;Humidity;BMP_temperature;BMP_pressure;BME280_temperature;BME280_humidity;BME280_pressure;Samples;Min_cycle;Max_cycle;Signal;HPM_P1;HPM_P2
2021/08/22 00:00:07;;;;;;;7.30;6.00;;;26.80;47.70;;;;;;5025432;28;20049;-69
2021/08/22 00:02:33;;;;;;;6.38;5.65;;;26.80;47.60;;;;;;5019913;28;20124;-69
2021/08/22 00:04:59;;;;;;;6.20;5.40;;;26.80;47.90;;;;;;5005159;28;20455;-68
2021/08/22 00:07:24;;;;;;;7.28;5.85;;;26.80;47.70;;;;;;5004264;28;20053;-68
2021/08/22 00:09:50;;;;;;;6.22;5.43;;;26.80;47.70;;;;;;5017210;28;20037;-68
2021/08/22 00:12:16;;;;;;;6.20;5.60;;;26.80;47.60;;;;;;5022712;28;20041;-69
2021/08/22 00:14:42;;;;;;;6.32;5.68;;;26.80;47.30;;;;;;5029267;28;20121;-69
2021/08/22 00:17:07;;;;;;;8.23;5.63;;;26.60;47.90;;;;;;5025720;28;20487;-68
2021/08/22 00:19:33;;;;;;;7.20;5.75;;;26.60;48.00;;;;;;5027572;28;20065;-68
2021/08/22 00:21:59;;;;;;;7.15;5.47;;;26.50;48.60;;;;;;5026762;28;20049;-68
2021/08/22 00:24:24;;;;;;;9.38;5.63;;;26.50;48.60;;;;;;5028042;28;20040;-68
2021/08/22 00:26:51;;;;;;;10.57;6.05;;;26.60;48.30;;;;;;5015632;28;20045;-68
2021/08/22 00:29:16;;;;;;;5.93;5.20;;;26.70;48.20;;;;;;5030501;28;20060;-67
2021/08/22 00:31:42;;;;;;;8.70;5.80;;;26.70;48.10;;;;;;5024391;28;20479;-67
2021/08/22 00:34:08;;;;;;;7.57;5.70;;;26.80;48.00;;;;;;5012113;28;20472;-61
2021/08/22 00:36:34;;;;;;;6.90;5.60;;;26.70;48.10;;;;;;5011683;28;20045;-68
2021/08/22 00:38:59;;;;;;;8.02;5.65;;;26.60;47.80;;;;;;5029368;28;20033;-68
2021/08/22 00:41:25;;;;;;;8.02;5.50;;;26.60;48.00;;;;;;5011161;28;20042;-68
2021/08/22 00:43:51;;;;;;;6.47;5.47;;;26.70;48.20;;;;;;5010361;28;20475;-67
2021/08/22 00:46:17;;;;;;;6.25;5.05;;;26.70;48.10;;;;;;5022849;28;20064;-68
2021/08/22 00:48:44;;;;;;;6.85;5.28;;;26.60;48.10;;;;;;5008969;28;20167;-69
2021/08/22 00:51:15;;;;;;;11.38;5.60;;;26.60;48.00;;;;;;5026385;28;20799;-67
2021/08/22 00:53:42;;;;;;;8.23;5.65;;;26.50;47.90;;;;;;5023497;28;20052;-67
2021/08/22 00:56:10;;;;;;;7.28;5.32;;;26.50;47.50;;;;;;5017569;28;20046;-62
2021/08/22 00:58:35;;;;;;;8.65;6.28;;;26.50;47.20;;;;;;5004239;28;20124;-70
2021/08/22 01:01:01;;;;;;;7.50;5.80;;;26.60;47.00;;;;;;5011756;28;20601;-68
2021/08/22 01:03:39;;;;;;;10.00;6.00;;;26.60;46.80;;;;;;5025275;28;20045;-68
2021/08/22 01:06:20;;;;;;;6.40;5.78;;;26.60;47.20;;;;;;5033200;28;20041;-68
2021/08/22 01:08:55;;;;;;;8.93;6.22;;;26.50;47.00;;;;;;4964074;28;20030;-68
2021/08/22 01:11:23;;;;;;;11.13;6.22;;;26.60;46.70;;;;;;5017577;28;20107;-68
2021/08/22 01:13:56;;;;;;;7.28;5.75;;;26.60;46.70;;;;;;5007485;28;20587;-67
2021/08/22 01:16:26;;;;;;;7.25;6.43;;;26.60;46.90;;;;;;5027935;28;20052;-68
2021/08/22 01:18:55;;;;;;;9.23;5.75;;;26.60;46.70;;;;;;5024783;28;20533;-67
2021/08/22 01:21:22;;;;;;;9.73;5.78;;;26.60;47.00;;;;;;5024334;28;20041;-67
2021/08/22 01:23:54;;;;;;;7.07;5.78;;;26.50;47.00;;;;;;5010549;28;20041;-67
2021/08/22 01:26:25;;;;;;;9.50;6.28;;;26.60;47.50;;;;;;5022724;28;20060;-67
2021/08/22 01:28:52;;;;;;;6.43;5.68;;;26.60;47.80;;;;;;5019052;28;20037;-68
2021/08/22 01:31:24;;;;;;;6.75;5.72;;;26.60;47.80;;;;;;5025976;28;20495;-68
2021/08/22 01:33:53;;;;;;;6.68;5.57;;;26.40;48.40;;;;;;5024127;28;20124;-68
2021/08/22 01:36:21;;;;;;;7.20;5.97;;;26.50;48.40;;;;;;5027140;28;20041;-68
2021/08/22 01:38:47;;;;;;;7.07;5.93;;;26.40;47.90;;;;;;5022118;28;20036;-67
2021/08/22 01:41:13;;;;;;;6.75;6.00;;;26.50;47.90;;;;;;5032171;28;20052;-67
2021/08/22 01:43:39;;;;;;;7.82;5.65;;;26.40;47.80;;;;;;5022399;28;20682;-66
2021/08/22 01:46:07;;;;;;;7.25;5.55;;;26.50;47.90;;;;;;5004183;28;20124;-68
2021/08/22 01:48:34;;;;;;;8.75;6.28;;;26.50;48.20;;;;;;5017890;28;20045;-68
2021/08/22 01:51:00;;;;;;;8.35;6.60;;;26.40;48.70;;;;;;5001336;28;20550;-68
2021/08/22 01:53:28;;;;;;;7.07;5.90;;;26.40;48.80;;;;;;4994920;28;20041;-68
2021/08/22 01:55:53;;;;;;;9.02;5.60;;;26.50;48.70;;;;;;5012998;28;20037;-68
2021/08/22 01:58:21;;;;;;;8.55;6.10;;;26.40;48.80;;;;;;4999771;28;20044;-69
2021/08/22 02:00:48;;;;;;;8.10;5.60;;;26.30;48.90;;;;;;4999027;28;20038;-68
2021/08/22 02:03:18;;;;;;;8.88;5.90;;;26.30;49.20;;;;;;5008182;28;20037;-68
2021/08/22 02:05:47;;;;;;;6.75;5.95;;;26.30;49.80;;;;;;5007587;28;20046;-69
2021/08/22 02:08:18;;;;;;;7.93;6.00;;;26.30;50.00;;;;;;5026857;28;20083;-66
2021/08/22 02:10:56;;;;;;;6.47;5.68;;;26.30;50.10;;;;;;5017295;28;20492;-66
2021/08/22 02:13:30;;;;;;;6.43;5.82;;;26.40;50.60;;;;;;5014844;28;20559;-68
2021/08/22 02:15:58;;;;;;;10.23;6.65;;;26.40;50.60;;;;;;5002141;28;20045;-68
2021/08/22 02:18:25;;;;;;;7.72;6.50;;;26.30;50.80;;;;;;5022585;28;20095;-68
2021/08/22 02:20:52;;;;;;;9.18;6.63;;;26.20;51.20;;;;;;5019818;28;20042;-68
2021/08/22 02:23:18;;;;;;;7.13;6.38;;;26.20;51.40;;;;;;5015953;28;20395;-68
2021/08/22 02:25:44;;;;;;;6.82;6.22;;;26.30;51.30;;;;;;5020564;28;20034;-66
2021/08/22 02:28:10;;;;;;;8.65;5.88;;;26.30;50.90;;;;;;5008739;28;20447;-67
2021/08/22 02:30:37;;;;;;;7.70;6.38;;;26.30;50.80;;;;;;5014425;28;20132;-69
2021/08/22 02:33:03;;;;;;;6.35;5.65;;;26.30;51.10;;;;;;5020571;28;20045;-68
2021/08/22 02:35:29;;;;;;;8.32;6.35;;;26.30;51.10;;;;;;5026260;28;20054;-68
2021/08/22 02:37:55;;;;;;;7.38;5.25;;;26.20;51.10;;;;;;5023535;28;20042;-68
2021/08/22 02:40:21;;;;;;;11.32;6.25;;;26.30;51.30;;;;;;5027176;28;20029;-68
2021/08/22 02:42:46;;;;;;;6.35;5.75;;;26.30;51.60;;;;;;5015518;28;20100;-68
2021/08/22 02:45:12;;;;;;;8.40;6.00;;;26.20;51.70;;;;;;5008453;28;20120;-69
2021/08/22 02:47:37;;;;;;;9.48;6.30;;;26.10;52.20;;;;;;5011532;28;20099;-68
2021/08/22 02:50:04;;;;;;;6.95;5.97;;;26.20;52.60;;;;;;5007833;28;20507;-69
2021/08/22 02:52:29;;;;;;;6.75;6.15;;;26.20;52.80;;;;;;5001435;28;20042;-68
2021/08/22 02:54:55;;;;;;;7.03;6.32;;;26.20;52.90;;;;;;5006841;28;20033;-68
2021/08/22 02:57:21;;;;;;;6.43;5.82;;;26.20;53.10;;;;;;4999408;28;20038;-69
2021/08/22 02:59:46;;;;;;;9.35;6.30;;;26.00;53.00;;;;;;5018840;28;20041;-68
2021/08/22 03:02:12;;;;;;;7.18;6.10;;;26.10;52.80;;;;;;5022258;28;20514;-68
2021/08/22 03:04:39;;;;;;;7.88;6.30;;;26.10;52.20;;;;;;5026878;28;20132;-67
2021/08/22 03:07:05;;;;;;;6.70;5.90;;;26.10;51.70;;;;;;5009010;28;20132;-69
2021/08/22 03:09:31;;;;;;;7.68;5.78;;;26.10;51.90;;;;;;5004615;28;20050;-69
2021/08/22 03:11:56;;;;;;;6.90;5.57;;;26.10;52.00;;;;;;5009830;28;20057;-68
2021/08/22 03:14:22;;;;;;;8.32;5.45;;;26.10;51.70;;;;;;5023766;28;20034;-68
2021/08/22 03:16:47;;;;;;;10.23;5.45;;;26.10;51.90;;;;;;5025908;28;20041;-69
2021/08/22 03:19:13;;;;;;;5.68;5.10;;;26.00;51.50;;;;;;5007985;28;20073;-68
2021/08/22 03:21:44;;;;;;;8.57;5.68;;;26.00;51.80;;;;;;4997395;28;20046;-64
2021/08/22 03:24:10;;;;;;;8.50;5.95;;;26.00;51.80;;;;;;5017477;28;20041;-67
2021/08/22 03:26:36;;;;;;;9.02;5.95;;;26.00;51.90;;;;;;5032399;28;20403;-68
2021/08/22 03:29:01;;;;;;;8.77;6.20;;;26.00;52.10;;;;;;5026311;28;20452;-68
2021/08/22 03:31:27;;;;;;;8.63;6.75;;;26.00;53.20;;;;;;5028021;28;20037;-68
2021/08/22 03:33:52;;;;;;;8.90;6.85;;;25.90;53.30;;;;;;5010436;28;20045;-68
2021/08/22 03:36:18;;;;;;;8.02;6.45;;;25.90;54.10;;;;;;5015866;28;20034;-68
2021/08/22 03:38:45;;;;;;;8.23;6.68;;;25.90;54.50;;;;;;5027309;28;20514;-68
2021/08/22 03:41:11;;;;;;;8.52;7.05;;;25.90;54.70;;;;;;5025623;28;20112;-66
2021/08/22 03:43:36;;;;;;;11.98;7.53;;;25.80;55.00;;;;;;5028741;28;20455;-68
2021/08/22 03:46:02;;;;;;;10.68;7.38;;;25.80;55.20;;;;;;5033556;28;20506;-68
2021/08/22 03:48:27;;;;;;;7.90;7.10;;;25.80;55.60;;;;;;5030236;28;20046;-68
2021/08/22 03:50:53;;;;;;;8.05;6.55;;;25.70;56.20;;;;;;5022476;28;20124;-68
2021/08/22 03:53:19;;;;;;;8.50;7.45;;;25.70;56.70;;;;;;5032677;28;20073;-68
2021/08/22 03:55:45;;;;;;;8.63;7.20;;;25.70;57.10;;;;;;5008145;28;20025;-68
2021/08/22 03:58:11;;;;;;;8.35;7.18;;;25.70;57.30;;;;;;5030435;28;20048;-68
2021/08/22 04:00:37;;;;;;;9.63;6.90;;;25.70;58.40;;;;;;5028096;28;20041;-68
2021/08/22 04:03:02;;;;;;;9.65;7.15;;;25.60;58.60;;;;;;5018560;28;20076;-69
2021/08/22 04:05:28;;;;;;;9.43;7.15;;;25.60;58.80;;;;;;5008297;28;20454;-69
2021/08/22 04:07:55;;;;;;;7.38;6.68;;;25.50;59.00;;;;;;5014816;28;20034;-68
2021/08/22 04:10:21;;;;;;;8.35;7.35;;;25.60;59.20;;;;;;5025320;28;20050;-68
2021/08/22 04:12:47;;;;;;;8.75;6.80;;;25.60;59.10;;;;;;5029712;28;20025;-68
2021/08/22 04:15:12;;;;;;;8.10;7.03;;;25.50;59.90;;;;;;5022185;28;20521;-68
2021/08/22 04:17:38;;;;;;;7.90;6.85;;;25.40;59.60;;;;;;5025098;28;20124;-69
2021/08/22 04:20:04;;;;;;;9.88;7.30;;;25.40;59.60;;;;;;5025371;28;20167;-69
2021/08/22 04:22:31;;;;;;;11.02;7.57;;;25.40;59.80;;;;;;5011392;28;20372;-68
2021/08/22 04:24:57;;;;;;;12.65;7.70;;;25.40;59.60;;;;;;5029550;28;20424;-69
2021/08/22 04:27:22;;;;;;;10.80;7.38;;;25.50;59.30;;;;;;5023492;28;20179;-68
2021/08/22 04:29:48;;;;;;;7.60;6.82;;;25.60;58.60;;;;;;5028616;28;20108;-68
2021/08/22 04:32:13;;;;;;;7.32;6.63;;;25.70;58.40;;;;;;5013701;28;20049;-67
2021/08/22 04:34:39;;;;;;;10.90;6.95;;;25.70;58.40;;;;;;5013607;28;20056;-69
2021/08/22 04:37:05;;;;;;;6.75;6.15;;;25.70;58.50;;;;;;5006406;28;20049;-68
2021/08/22 04:39:30;;;;;;;7.07;6.25;;;25.80;58.60;;;;;;5011986;28;20495;-69
2021/08/22 04:41:56;;;;;;;7.60;6.03;;;25.80;58.60;;;;;;5017974;28;20056;-68
2021/08/22 04:44:21;;;;;;;11.63;6.85;;;25.80;58.30;;;;;;5028341;28;20065;-68
2021/08/22 04:46:47;;;;;;;9.98;6.80;;;25.80;57.80;;;;;;5004433;28;20041;-68
2021/08/22 04:49:13;;;;;;;6.82;6.20;;;25.90;57.80;;;;;;5022342;28;20025;-68
2021/08/22 04:51:39;;;;;;;6.93;6.15;;;25.90;57.60;;;;;;5014443;28;20403;-68
2021/08/22 04:54:05;;;;;;;12.20;6.93;;;25.90;57.60;;;;;;5012038;28;20044;-68
2021/08/22 04:56:30;;;;;;;6.70;6.10;;;26.00;57.70;;;;;;5016650;28;20045;-69
2021/08/22 04:58:56;;;;;;;10.43;7.00;;;26.00;57.70;;;;;;5027976;28;20048;-68
2021/08/22 05:01:22;;;;;;;7.00;6.07;;;26.00;57.40;;;;;;5029414;28;20059;-68
2021/08/22 05:03:47;;;;;;;7.82;6.45;;;26.00;57.00;;;;;;5022794;28;20054;-68
2021/08/22 05:06:13;;;;;;;9.30;6.82;;;26.00;56.90;;;;;;5027737;28;20087;-68
2021/08/22 05:08:39;;;;;;;9.50;6.68;;;26.00;56.80;;;;;;5023264;28;20041;-69
2021/08/22 05:11:06;;;;;;;6.68;5.78;;;26.00;56.80;;;;;;5024569;28;20045;-69
2021/08/22 05:13:37;;;;;;;7.53;6.75;;;26.00;56.80;;;;;;5024634;28;20490;-68
2021/08/22 05:16:04;;;;;;;9.10;6.10;;;26.10;56.60;;;;;;5027794;28;20040;-68
2021/08/22 05:18:29;;;;;;;10.65;6.50;;;26.00;56.30;;;;;;5019553;28;20030;-68
2021/08/22 05:20:55;;;;;;;7.30;6.60;;;26.00;56.20;;;;;;5022826;28;20064;-68
2021/08/22 05:23:20;;;;;;;12.63;6.35;;;26.10;56.30;;;;;;5010657;28;20483;-68
2021/08/22 05:25:46;;;;;;;6.43;5.82;;;26.10;56.20;;;;;;5018240;28;20085;-66
2021/08/22 05:28:12;;;;;;;7.43;6.25;;;26.20;56.10;;;;;;5021203;28;20107;-66
2021/08/22 05:30:37;;;;;;;7.57;5.65;;;26.20;55.80;;;;;;5028952;28;20039;-68
2021/08/22 05:33:04;;;;;;;12.18;7.43;;;26.20;55.90;;;;;;5007345;28;20042;-67
2021/08/22 05:35:30;;;;;;;6.70;5.97;;;26.20;55.80;;;;;;5010992;28;20038;-67
2021/08/22 05:37:55;;;;;;;8.32;5.95;;;26.20;55.80;;;;;;5012265;28;20053;-67
2021/08/22 05:40:21;;;;;;;9.50;5.82;;;26.30;56.00;;;;;;5018242;28;20491;-67
2021/08/22 05:42:47;;;;;;;7.88;6.40;;;26.20;56.00;;;;;;5018559;28;20056;-68
2021/08/22 05:45:12;;;;;;;7.35;6.20;;;26.10;56.20;;;;;;5024146;28;20112;-67
2021/08/22 05:47:38;;;;;;;7.75;7.05;;;26.10;56.50;;;;;;5012411;28;20373;-67
2021/08/22 05:50:05;;;;;;;6.75;5.75;;;26.00;56.50;;;;;;5007494;28;20049;-67
2021/08/22 05:52:35;;;;;;;7.57;6.45;;;26.00;56.80;;;;;;4991257;28;20100;-67
2021/08/22 05:55:10;;;;;;;7.57;6.05;;;26.00;56.90;;;;;;5011531;28;21790;-67
2021/08/22 05:57:36;;;;;;;7.20;6.60;;;26.10;57.00;;;;;;5014151;28;20373;-67
2021/08/22 06:00:03;;;;;;;6.38;5.78;;;26.20;56.50;;;;;;5024383;28;20094;-67
2021/08/22 06:02:29;;;;;;;6.75;5.90;;;26.20;56.30;;;;;;5017375;28;20118;-67
2021/08/22 06:04:55;;;;;;;7.22;6.53;;;26.10;56.50;;;;;;5018765;28;20037;-68
2021/08/22 06:07:21;;;;;;;7.80;6.07;;;26.10;56.60;;;;;;5018519;28;20049;-67
2021/08/22 06:09:51;;;;;;;7.35;6.20;;;26.20;56.80;;;;;;5004392;28;20112;-66
2021/08/22 06:12:17;;;;;;;7.72;6.53;;;26.10;56.80;;;;;;5006815;28;20108;-67
2021/08/22 06:14:43;;;;;;;8.43;6.90;;;26.20;56.50;;;;;;5008206;28;20048;-67
2021/08/22 06:17:09;;;;;;;9.23;6.15;;;26.30;56.30;;;;;;5031849;28;20460;-67
2021/08/22 06:19:35;;;;;;;6.75;6.05;;;26.40;56.10;;;;;;5018732;28;20124;-68
2021/08/22 06:22:01;;;;;;;6.75;6.15;;;26.50;56.10;;;;;;5023948;28;20080;-67
2021/08/22 06:24:27;;;;;;;6.22;5.68;;;26.50;55.80;;;;;;5027513;28;20042;-68
2021/08/22 06:26:52;;;;;;;6.68;6.18;;;26.60;56.10;;;;;;5020709;28;20057;-67
2021/08/22 06:29:18;;;;;;;7.32;6.63;;;26.60;55.60;;;;;;5027470;28;20141;-67
2021/08/22 06:31:44;;;;;;;7.15;6.43;;;26.60;56.30;;;;;;5023369;28;20052;-66
2021/08/22 06:34:10;;;;;;;7.57;6.88;;;26.70;55.70;;;;;;5023997;28;20037;-67
2021/08/22 06:36:39;;;;;;;9.07;6.13;;;26.70;55.60;;;;;;5023022;28;20113;-67
2021/08/22 06:39:08;;;;;;;7.75;6.50;;;26.80;55.60;;;;;;5023798;28;20044;-67
2021/08/22 06:41:37;;;;;;;7.78;6.72;;;26.60;55.80;;;;;;5024546;28;20050;-67
2021/08/22 06:44:03;;;;;;;7.43;6.35;;;26.60;56.00;;;;;;5026798;28;23504;-67
2021/08/22 06:46:29;;;;;;;7.85;6.38;;;26.60;55.80;;;;;;5026168;28;20487;-67
2021/08/22 06:48:54;;;;;;;8.27;6.22;;;26.60;56.20;;;;;;5008594;28;20041;-66
2021/08/22 06:51:20;;;;;;;8.45;7.20;;;26.60;55.90;;;;;;5004330;28;20068;-67
2021/08/22 06:53:46;;;;;;;7.07;6.15;;;26.80;55.60;;;;;;5005465;28;20049;-68
2021/08/22 06:56:12;;;;;;;7.88;6.03;;;26.60;55.70;;;;;;5009085;28;20038;-68
2021/08/22 06:58:37;;;;;;;6.68;6.07;;;26.80;55.40;;;;;;5010105;28;20522;-69
2021/08/22 07:01:05;;;;;;;6.32;5.57;;;26.90;55.00;;;;;;5027783;28;20364;-67
2021/08/22 07:03:31;;;;;;;7.10;5.80;;;26.90;55.30;;;;;;5028054;28;20072;-68
2021/08/22 07:05:57;;;;;;;8.35;5.85;;;27.00;54.90;;;;;;5030308;28;20042;-68
2021/08/22 07:08:23;;;;;;;7.88;6.00;;;27.10;54.20;;;;;;5008765;28;20121;-68
2021/08/22 07:10:48;;;;;;;7.25;6.05;;;27.20;53.70;;;;;;5021457;28;20041;-67
2021/08/22 07:13:14;;;;;;;7.25;5.70;;;27.30;53.10;;;;;;5018156;28;20472;-67
2021/08/22 07:15:39;;;;;;;6.40;5.80;;;27.40;52.20;;;;;;5016119;28;20029;-67
2021/08/22 07:18:05;;;;;;;5.95;5.38;;;27.40;51.50;;;;;;5022647;28;20124;-68
2021/08/22 07:20:31;;;;;;;9.02;5.80;;;27.30;50.50;;;;;;5031222;28;20048;-67
2021/08/22 07:22:56;;;;;;;8.05;7.25;;;27.30;47.70;;;;;;5022311;28;20411;-68
2021/08/22 07:25:22;;;;;;;6.28;5.72;;;27.20;50.20;;;;;;5023159;28;20188;-68
2021/08/22 07:27:48;;;;;;;6.85;6.15;;;27.30;49.00;;;;;;5014231;28;20137;-67
2021/08/22 07:30:14;;;;;;;6.97;5.40;;;27.50;48.50;;;;;;5017327;28;20034;-67
2021/08/22 07:32:40;;;;;;;8.93;6.10;;;27.50;47.50;;;;;;5014002;28;20040;-68
2021/08/22 07:35:06;;;;;;;9.43;5.78;;;27.50;46.80;;;;;;5031080;28;20395;-68
2021/08/22 07:37:32;;;;;;;6.43;5.68;;;27.60;46.60;;;;;;5027497;28;20033;-68
2021/08/22 07:39:58;;;;;;;8.18;5.85;;;27.50;46.00;;;;;;5028432;28;20104;-67
2021/08/22 07:42:23;;;;;;;6.97;5.32;;;27.60;46.10;;;;;;5030285;28;20045;-67
2021/08/22 07:44:49;;;;;;;5.70;5.03;;;27.50;46.20;;;;;;5026857;28;20391;-67
2021/08/22 07:47:15;;;;;;;7.25;5.45;;;27.50;46.00;;;;;;5025886;28;20121;-67
2021/08/22 07:49:40;;;;;;;7.88;5.32;;;27.60;45.80;;;;;;5027302;28;20039;-68
2021/08/22 07:52:06;;;;;;;6.10;5.50;;;27.80;45.00;;;;;;5013536;28;20033;-68
2021/08/22 07:54:32;;;;;;;8.32;5.75;;;27.80;43.30;;;;;;5026360;28;20046;-68
2021/08/22 07:56:59;;;;;;;7.28;5.13;;;27.70;44.40;;;;;;5026957;28;20029;-68
2021/08/22 07:59:24;;;;;;;7.38;5.68;;;28.00;42.60;;;;;;5011814;28;20050;-68
2021/08/22 08:01:50;;;;;;;5.60;4.85;;;28.00;42.50;;;;;;5005429;28;20095;-69
2021/08/22 08:04:15;;;;;;;7.10;5.28;;;28.10;42.20;;;;;;5008911;28;20038;-68
2021/08/22 08:06:41;;;;;;;7.20;5.75;;;28.00;42.30;;;;;;5009379;28;20100;-68
2021/08/22 08:09:06;;;;;;;7.60;5.90;;;28.00;43.20;;;;;;5006743;28;20129;-69
2021/08/22 08:11:32;;;;;;;6.72;5.93;;;28.10;42.60;;;;;;5018347;28;20045;-68
2021/08/22 08:13:57;;;;;;;5.78;4.75;;;28.20;42.70;;;;;;5013485;28;20483;-68
2021/08/22 08:16:23;;;;;;;8.23;5.45;;;28.30;42.50;;;;;;5009561;28;20073;-70
2021/08/22 08:18:49;;;;;;;6.32;5.07;;;28.30;40.70;;;;;;5018666;28;20037;-69
2021/08/22 08:21:15;;;;;;;5.95;4.72;;;28.10;41.70;;;;;;5008043;28;20084;-67
2021/08/22 08:23:40;;;;;;;7.65;5.53;;;28.20;41.00;;;;;;5008507;28;20132;-68
2021/08/22 08:26:06;;;;;;;6.10;5.32;;;28.10;41.00;;;;;;5014675;28;20108;-68
2021/08/22 08:28:32;;;;;;;6.00;5.40;;;28.20;41.20;;;;;;5008940;28;20141;-68
2021/08/22 08:30:58;;;;;;;6.28;5.30;;;28.20;40.80;;;;;;5005267;28;20092;-69
2021/08/22 08:33:23;;;;;;;5.82;4.90;;;28.20;39.90;;;;;;5023952;28;20542;-68
2021/08/22 08:35:49;;;;;;;6.50;5.10;;;28.30;39.80;;;;;;5024829;28;20105;-68
2021/08/22 08:38:15;;;;;;;6.10;5.47;;;28.40;39.60;;;;;;5028091;28;20045;-68
2021/08/22 08:40:41;;;;;;;6.72;5.60;;;28.40;39.30;;;;;;5026152;28;20030;-68
2021/08/22 08:43:08;;;;;;;5.63;4.97;;;28.40;39.80;;;;;;5024433;28;20041;-68
2021/08/22 08:45:46;;;;;;;5.75;5.22;;;28.30;39.60;;;;;;5024244;28;20480;-68
2021/08/22 08:48:20;;;;;;;6.22;5.32;;;28.30;38.90;;;;;;5025349;28;20042;-68
2021/08/22 08:50:51;;;;;;;6.40;5.15;;;28.40;39.00;;;;;;5024115;28;20175;-68
2021/08/22 08:53:23;;;;;;;5.88;5.10;;;28.30;38.90;;;;;;5024892;28;20091;-68
2021/08/22 08:55:56;;;;;;;5.75;5.25;;;28.10;39.30;;;;;;4996867;28;20483;-68
2021/08/22 08:58:22;;;;;;;6.28;5.65;;;28.40;39.00;;;;;;5029125;28;20174;-68
2021/08/22 09:00:48;;;;;;;7.57;5.88;;;28.50;39.00;;;;;;5025657;28;20049;-68
2021/08/22 09:03:15;;;;;;;6.25;5.65;;;28.70;39.00;;;;;;5026915;28;20045;-66
2021/08/22 09:05:46;;;;;;;7.72;5.88;;;28.80;39.00;;;;;;5029863;28;20033;-69
2021/08/22 09:08:36;;;;;;;8.10;6.25;;;29.20;38.50;;;;;;5023846;28;20029;-68
2021/08/22 09:11:19;;;;;;;5.93;5.43;;;29.40;37.70;;;;;;4990954;28;20044;-68
2021/08/22 09:14:22;;;;;;;6.90;5.70;;;29.60;36.60;;;;;;5022669;28;20041;-67
2021/08/22 09:17:06;;;;;;;5.60;5.07;;;29.60;36.20;;;;;;5006311;28;20075;-68
2021/08/22 09:19:50;;;;;;;;;;;29.40;36.40;;;;;;5024665;28;20037;-68
2021/08/22 09:22:53;;;;;;;7.60;5.70;;;29.40;37.20;;;;;;5021500;28;19921;-68
2021/08/22 09:25:24;;;;;;;5.82;5.22;;;29.30;37.60;;;;;;5002756;28;20041;-68
2021/08/22 09:28:28;;;;;;;6.38;5.57;;;29.60;37.70;;;;;;5018112;28;20049;-68
2021/08/22 09:31:31;;;;;;;7.22;6.18;;;29.80;37.10;;;;;;5000007;28;20029;-68
2021/08/22 09:34:33;;;;;;;6.30;5.70;;;30.10;36.70;;;;;;4978106;28;20044;-68
2021/08/22 09:37:09;;;;;;;6.20;5.43;;;30.00;36.70;;;;;;4997903;28;20037;-68
2021/08/22 09:39:53;;;;;;;8.30;6.13;;;29.80;36.70;;;;;;5027069;28;20041;-68
2021/08/22 09:42:37;;;;;;;;;;;29.80;37.10;;;;;;4986949;28;20049;-68
2021/08/22 09:45:40;;;;;;;6.10;5.60;;;29.70;38.20;;;;;;5029043;28;19934;-68
2021/08/22 09:48:43;;;;;;;6.53;5.93;;;29.60;38.10;;;;;;4989287;28;20033;-68
2021/08/22 09:51:46;;;;;;;6.55;5.90;;;29.80;37.10;;;;;;4988892;28;20042;-68
2021/08/22 09:54:39;;;;;;;6.03;5.53;;;29.90;36.50;;;;;;4975884;28;20626;-68
2021/08/22 09:57:42;;;;;;;6.77;5.27;;;29.80;36.40;;;;;;4996728;28;20034;-68
2021/08/22 10:00:11;;;;;;;6.13;5.53;;;30.10;36.50;;;;;;4989918;28;20049;-68
2021/08/22 10:02:48;;;;;;;6.05;5.40;;;30.20;36.50;;;;;;5007067;28;20523;-69
2021/08/22 10:05:16;;;;;;;6.72;5.57;;;30.10;36.20;;;;;;5021626;28;20370;-65
2021/08/22 10:07:48;;;;;;;7.75;5.90;;;30.30;37.30;;;;;;5014442;28;20104;-68
2021/08/22 10:10:20;;;;;;;9.13;6.38;;;30.30;37.10;;;;;;5018795;28;20045;-68
2021/08/22 10:12:46;;;;;;;7.28;6.15;;;30.30;37.10;;;;;;5023531;28;20100;-68
2021/08/22 10:15:11;;;;;;;6.65;5.95;;;30.30;37.00;;;;;;5019056;28;20045;-68
2021/08/22 10:17:37;;;;;;;9.40;6.38;;;30.30;36.80;;;;;;5025228;28;20113;-68
2021/08/22 10:20:03;;;;;;;7.07;6.25;;;30.50;36.60;;;;;;5011375;28;20072;-68
2021/08/22 10:22:33;;;;;;;8.23;5.75;;;30.20;36.70;;;;;;5025369;28;21392;-68
2021/08/22 10:25:03;;;;;;;6.90;6.18;;;30.30;36.60;;;;;;5021603;28;20046;-68
2021/08/22 10:27:33;;;;;;;6.55;5.95;;;30.30;36.40;;;;;;5009992;28;20056;-69
2021/08/22 10:30:02;;;;;;;5.95;5.15;;;30.30;36.10;;;;;;5013610;28;20033;-68
2021/08/22 10:32:31;;;;;;;7.50;5.82;;;30.50;36.00;;;;;;5020931;28;20077;-68
2021/08/22 10:35:14;;;;;;;6.20;5.70;;;30.30;34.90;;;;;;5004751;28;20042;-68
2021/08/22 10:37:43;;;;;;;6.28;5.68;;;30.50;34.90;;;;;;5019005;28;20116;-68
2021/08/22 10:40:30;;;;;;;6.40;5.90;;;30.40;35.20;;;;;;5021512;28;20042;-68
2021/08/22 10:43:04;;;;;;;6.00;5.45;;;30.40;35.00;;;;;;5002777;28;20064;-68
2021/08/22 10:45:51;;;;;;;6.57;5.63;;;30.70;35.40;;;;;;5022031;28;20037;-68
2021/08/22 10:48:23;;;;;;;6.65;5.53;;;30.80;35.80;;;;;;5019871;28;20034;-67
2021/08/22 10:50:57;;;;;;;5.75;5.25;;;31.00;35.70;;;;;;5003490;28;20033;-68
2021/08/22 10:53:31;;;;;;;6.78;6.07;;;31.30;35.40;;;;;;5019769;28;20129;-68
2021/08/22 10:55:58;;;;;;;5.72;5.18;;;31.30;35.20;;;;;;5002903;28;20088;-68
2021/08/22 10:59:08;;;;;;;5.72;4.78;;;31.30;34.80;;;;;;5003324;28;20034;-68
2021/08/22 11:01:36;;;;;;;9.48;5.78;;;31.40;34.60;;;;;;4983551;28;20426;-69
2021/08/22 11:04:16;;;;;;;7.22;5.35;;;31.40;34.60;;;;;;5024925;28;20029;-68
2021/08/22 11:06:55;;;;;;;9.73;5.60;;;31.60;34.20;;;;;;5023051;28;20041;-68
2021/08/22 11:09:33;;;;;;;6.05;5.30;;;31.50;35.00;;;;;;4991929;28;20037;-68
2021/08/22 11:11:58;;;;;;;6.78;6.07;;;31.60;34.20;;;;;;5019109;28;20030;-68
2021/08/22 11:14:24;;;;;;;5.80;5.30;;;31.60;34.10;;;;;;5017754;28;20041;-69
2021/08/22 11:16:50;;;;;;;6.28;5.38;;;31.80;33.90;;;;;;5003906;28;20049;-69
2021/08/22 11:19:15;;;;;;;8.48;5.72;;;31.70;34.00;;;;;;5007136;28;20475;-66
2021/08/22 11:21:41;;;;;;;5.90;5.35;;;31.80;34.70;;;;;;5018780;28;20133;-67
2021/08/22 11:24:07;;;;;;;6.63;5.95;;;32.00;33.90;;;;;;5026765;28;20033;-67
2021/08/22 11:26:33;;;;;;;5.72;5.28;;;32.10;34.00;;;;;;5019254;28;20124;-67
2021/08/22 11:29:00;;;;;;;6.55;5.40;;;32.10;33.00;;;;;;5024623;28;20492;-67
2021/08/22 11:31:34;;;;;;;6.20;5.65;;;32.00;33.10;;;;;;5025595;28;20065;-68
2021/08/22 11:34:14;;;;;;;7.65;5.40;;;32.20;31.80;;;;;;5020700;28;20045;-67
2021/08/22 11:36:40;;;;;;;6.22;5.53;;;32.60;30.90;;;;;;5010627;28;20080;-67
2021/08/22 11:39:10;;;;;;;5.20;4.70;;;32.90;30.80;;;;;;5014916;28;20042;-68
2021/08/22 11:41:37;;;;;;;5.90;4.85;;;33.60;29.90;;;;;;5022031;28;20050;-68
2021/08/22 11:44:03;;;;;;;5.53;5.03;;;35.30;27.80;;;;;;5019149;28;20071;-67
2021/08/22 11:46:29;;;;;;;8.88;5.45;;;35.90;26.30;;;;;;5013454;28;20038;-68
2021/08/22 11:48:56;;;;;;;8.00;5.70;;;36.30;25.40;;;;;;5008838;28;20374;-68
2021/08/22 11:51:22;;;;;;;5.38;4.82;;;37.80;23.20;;;;;;5027729;28;20037;-68
2021/08/22 11:53:48;;;;;;;7.82;6.20;;;38.60;22.00;;;;;;5022908;28;20424;-68
2021/08/22 11:56:22;;;;;;;6.25;5.28;;;39.10;22.90;;;;;;5032460;28;20116;-68
2021/08/22 11:58:47;;;;;;;;;;;39.30;20.60;;;;;;5007351;28;20133;-68
2021/08/22 12:01:17;;;;;;;6.00;5.40;;;39.40;22.00;;;;;;5008927;28;20412;-68
2021/08/22 12:04:02;;;;;;;6.13;5.65;;;39.40;47.90;;;;;;5006234;28;20502;-68
2021/08/22 12:06:29;;;;;;;6.38;5.88;;;39.30;20.00;;;;;;4988963;28;20072;-68
2021/08/22 12:08:55;;;;;;;6.40;5.82;;;40.60;20.60;;;;;;5006088;28;20049;-67
2021/08/22 12:11:24;;;;;;;6.32;5.72;;;42.40;17.90;;;;;;5022247;28;20038;-68
2021/08/22 12:13:52;;;;;;;6.90;6.20;;;42.20;18.10;;;;;;5011094;28;20442;-68
2021/08/22 12:16:28;;;;;;;6.68;6.07;;;42.20;17.50;;;;;;5010429;28;20544;-68
2021/08/22 12:19:21;;;;;;;6.28;5.68;;;42.40;16.90;;;;;;5011672;28;20048;-69
2021/08/22 12:21:48;;;;;;;7.00;6.38;;;43.00;20.10;;;;;;5012912;28;20049;-69
2021/08/22 12:24:30;;;;;;;6.13;5.63;;;41.70;18.00;;;;;;5017170;28;20450;-69
2021/08/22 12:27:01;;;;;;;7.07;6.38;;;41.50;17.90;;;;;;4974770;28;20035;-69
2021/08/22 12:29:34;;;;;;;6.40;5.93;;;40.90;18.30;;;;;;5026334;28;20395;-69
2021/08/22 12:32:18;;;;;;;6.78;6.25;;;41.10;18.60;;;;;;5014615;28;20179;-69
2021/08/22 12:34:44;;;;;;;7.00;6.38;;;41.40;18.00;;;;;;5024639;28;20049;-69
2021/08/22 12:37:12;;;;;;;6.63;6.05;;;41.90;18.20;;;;;;5010765;28;20038;-69
2021/08/22 12:39:38;;;;;;;7.03;6.45;;;42.90;20.70;;;;;;5004633;28;20050;-69
2021/08/22 12:42:04;;;;;;;6.63;6.13;;;42.40;21.90;;;;;;5007912;28;20408;-69
2021/08/22 12:44:30;;;;;;;6.95;6.35;;;42.20;17.50;;;;;;5016865;28;20042;-70
2021/08/22 12:47:02;;;;;;;11.20;6.25;;;41.70;21.30;;;;;;5010928;28;20041;-69
2021/08/22 12:49:29;;;;;;;6.72;6.25;;;41.50;17.50;;;;;;5006598;28;20160;-68
2021/08/22 12:52:05;;;;;;;7.57;6.70;;;42.40;17.80;;;;;;5016537;28;20069;-69
2021/08/22 12:54:32;;;;;;;7.28;6.72;;;43.70;15.40;;;;;;5026264;28;20579;-69
2021/08/22 12:56:58;;;;;;;6.97;6.38;;;43.20;15.80;;;;;;5023211;28;20041;-69